sensor_id;sensor_type;location;lat;lon;timestamp;temperature;humidity
48998;DHT22;34807;51.456;7.244;2023-07-08T00:00:24;22.30;63.00
48998;DHT22;34807;51.456;7.244;2023-07-08T00:02:50;22.30;62.80
48998;DHT22;34807;51.456;7.244;2023-07-08T00:05:16;22.30;63.00
48998;DHT22;34807;51.456;7.244;2023-07-08T00:07:43;22.20;62.90
48998;DHT22;34807;51.456;7.244;2023-07-08T00:10:16;22.20;63.00
48998;DHT22;34807;51.456;7.244;2023-07-08T00:12:43;22.20;63.00
48998;DHT22;34807;51.456;7.244;2023-07-08T00:15:09;22.20;62.80
48998;DHT22;34807;51.456;7.244;2023-07-08T00:17:35;22.20;63.20
48998;DHT22;34807;51.456;7.244;2023-07-08T00:20:00;22.20;63.00
48998;DHT22;34807;51.456;7.244;2023-07-08T00:22:26;22.20;63.20
48998;DHT22;34807;51.456;7.244;2023-07-08T00:24:51;22.20;63.10
48998;DHT22;34807;51.456;7.244;2023-07-08T00:27:17;22.10;63.10
48998;DHT22;34807;51.456;7.244;2023-07-08T00:29:42;22.10;63.20
48998;DHT22;34807;51.456;7.244;2023-07-08T00:32:14;22.10;63.00
48998;DHT22;34807;51.456;7.244;2023-07-08T00:34:40;22.10;63.20
48998;DHT22;34807;51.456;7.244;2023-07-08T00:37:12;22.10;63.10
48998;DHT22;34807;51.456;7.244;2023-07-08T00:39:38;22.10;63.50
48998;DHT22;34807;51.456;7.244;2023-07-08T00:42:12;22.00;63.40
48998;DHT22;34807;51.456;7.244;2023-07-08T00:44:38;22.00;63.50
48998;DHT22;34807;51.456;7.244;2023-07-08T00:47:07;22.00;63.00
48998;DHT22;34807;51.456;7.244;2023-07-08T00:55:01;21.90;63.40
48998;DHT22;34807;51.456;7.244;2023-07-08T00:57:30;22.00;63.20
48998;DHT22;34807;51.456;7.244;2023-07-08T00:59:58;22.00;63.50
48998;DHT22;34807;51.456;7.244;2023-07-08T01:02:25;22.00;63.10
48998;DHT22;34807;51.456;7.244;2023-07-08T01:04:56;21.90;63.20
48998;DHT22;34807;51.456;7.244;2023-07-08T01:07:24;21.90;62.90
48998;DHT22;34807;51.456;7.244;2023-07-08T01:09:52;21.90;63.10
48998;DHT22;34807;51.456;7.244;2023-07-08T01:12:26;21.90;63.90
48998;DHT22;34807;51.456;7.244;2023-07-08T01:14:52;21.80;63.20
48998;DHT22;34807;51.456;7.244;2023-07-08T01:17:19;21.90;63.70
48998;DHT22;34807;51.456;7.244;2023-07-08T01:19:45;21.80;63.40
48998;DHT22;34807;51.456;7.244;2023-07-08T01:22:10;21.80;63.90
48998;DHT22;34807;51.456;7.244;2023-07-08T01:24:37;21.80;63.90
48998;DHT22;34807;51.456;7.244;2023-07-08T01:27:04;21.80;63.30
48998;DHT22;34807;51.456;7.244;2023-07-08T01:29:30;21.70;64.00
48998;DHT22;34807;51.456;7.244;2023-07-08T01:31:57;21.70;64.00
48998;DHT22;34807;51.456;7.244;2023-07-08T01:34:23;21.70;64.20
48998;DHT22;34807;51.456;7.244;2023-07-08T01:36:52;21.70;64.10
48998;DHT22;34807;51.456;7.244;2023-07-08T01:39:19;21.70;64.20
48998;DHT22;34807;51.456;7.244;2023-07-08T01:41:45;21.70;64.20
48998;DHT22;34807;51.456;7.244;2023-07-08T01:46:55;21.60;64.00
48998;DHT22;34807;51.456;7.244;2023-07-08T01:49:23;21.60;64.40
48998;DHT22;34807;51.456;7.244;2023-07-08T01:51:48;21.60;64.30
48998;DHT22;34807;51.456;7.244;2023-07-08T01:54:15;21.60;64.50
48998;DHT22;34807;51.456;7.244;2023-07-08T01:56:40;21.50;64.50
48998;DHT22;34807;51.456;7.244;2023-07-08T01:59:05;21.50;64.40
48998;DHT22;34807;51.456;7.244;2023-07-08T02:01:31;21.50;64.40
48998;DHT22;34807;51.456;7.244;2023-07-08T02:03:56;21.40;64.40
48998;DHT22;34807;51.456;7.244;2023-07-08T02:06:22;21.40;64.00
48998;DHT22;34807;51.456;7.244;2023-07-08T02:08:47;21.40;64.50
48998;DHT22;34807;51.456;7.244;2023-07-08T02:11:13;21.30;64.20
48998;DHT22;34807;51.456;7.244;2023-07-08T02:13:38;21.30;64.30
48998;DHT22;34807;51.456;7.244;2023-07-08T02:16:06;21.30;64.80
48998;DHT22;34807;51.456;7.244;2023-07-08T02:18:31;21.30;64.80
48998;DHT22;34807;51.456;7.244;2023-07-08T02:20:57;21.30;65.00
48998;DHT22;34807;51.456;7.244;2023-07-08T02:23:24;21.20;64.90
48998;DHT22;34807;51.456;7.244;2023-07-08T02:25:50;21.20;64.90
48998;DHT22;34807;51.456;7.244;2023-07-08T02:28:15;21.20;65.00
48998;DHT22;34807;51.456;7.244;2023-07-08T02:30:41;21.20;65.00
48998;DHT22;34807;51.456;7.244;2023-07-08T02:33:06;21.10;65.10
48998;DHT22;34807;51.456;7.244;2023-07-08T02:35:32;21.10;64.80
48998;DHT22;34807;51.456;7.244;2023-07-08T02:37:57;21.10;65.10
48998;DHT22;34807;51.456;7.244;2023-07-08T02:40:23;21.10;65.30
48998;DHT22;34807;51.456;7.244;2023-07-08T02:42:49;21.10;65.20
48998;DHT22;34807;51.456;7.244;2023-07-08T02:45:15;21.00;65.20
48998;DHT22;34807;51.456;7.244;2023-07-08T02:47:41;21.00;65.30
48998;DHT22;34807;51.456;7.244;2023-07-08T02:50:07;21.00;65.40
48998;DHT22;34807;51.456;7.244;2023-07-08T02:52:34;21.00;65.60
48998;DHT22;34807;51.456;7.244;2023-07-08T02:54:59;20.90;65.60
48998;DHT22;34807;51.456;7.244;2023-07-08T02:57:25;20.90;65.50
48998;DHT22;34807;51.456;7.244;2023-07-08T02:59:50;20.90;65.80
48998;DHT22;34807;51.456;7.244;2023-07-08T03:02:16;20.90;65.50
48998;DHT22;34807;51.456;7.244;2023-07-08T03:04:41;20.90;65.80
48998;DHT22;34807;51.456;7.244;2023-07-08T03:07:07;20.80;65.60
48998;DHT22;34807;51.456;7.244;2023-07-08T03:09:40;20.80;65.70
48998;DHT22;34807;51.456;7.244;2023-07-08T03:12:06;20.80;66.00
48998;DHT22;34807;51.456;7.244;2023-07-08T03:14:32;20.70;65.90
48998;DHT22;34807;51.456;7.244;2023-07-08T03:16:57;20.80;65.90
48998;DHT22;34807;51.456;7.244;2023-07-08T03:19:23;20.80;65.90
48998;DHT22;34807;51.456;7.244;2023-07-08T03:21:48;20.70;65.90
48998;DHT22;34807;51.456;7.244;2023-07-08T03:24:14;20.70;66.00
48998;DHT22;34807;51.456;7.244;2023-07-08T03:26:43;20.70;65.90
48998;DHT22;34807;51.456;7.244;2023-07-08T03:29:16;20.70;66.00
48998;DHT22;34807;51.456;7.244;2023-07-08T03:31:42;20.70;65.90
48998;DHT22;34807;51.456;7.244;2023-07-08T03:34:17;20.70;66.00
48998;DHT22;34807;51.456;7.244;2023-07-08T03:36:47;20.60;66.00
48998;DHT22;34807;51.456;7.244;2023-07-08T03:39:16;20.60;65.50
48998;DHT22;34807;51.456;7.244;2023-07-08T03:41:41;20.60;65.90
48998;DHT22;34807;51.456;7.244;2023-07-08T03:44:07;20.60;66.20
48998;DHT22;34807;51.456;7.244;2023-07-08T03:46:32;20.60;66.20
48998;DHT22;34807;51.456;7.244;2023-07-08T03:48:58;20.60;66.50
48998;DHT22;34807;51.456;7.244;2023-07-08T03:51:24;20.60;66.30
48998;DHT22;34807;51.456;7.244;2023-07-08T03:53:51;20.60;66.50
48998;DHT22;34807;51.456;7.244;2023-07-08T03:56:16;20.50;66.50
48998;DHT22;34807;51.456;7.244;2023-07-08T03:58:42;20.50;66.50
48998;DHT22;34807;51.456;7.244;2023-07-08T04:01:10;20.50;66.70
48998;DHT22;34807;51.456;7.244;2023-07-08T04:03:38;20.50;66.60
48998;DHT22;34807;51.456;7.244;2023-07-08T04:06:04;20.50;66.60
48998;DHT22;34807;51.456;7.244;2023-07-08T04:08:29;20.50;66.60
48998;DHT22;34807;51.456;7.244;2023-07-08T04:10:55;20.40;66.70
48998;DHT22;34807;51.456;7.244;2023-07-08T04:13:20;20.50;66.80
48998;DHT22;34807;51.456;7.244;2023-07-08T04:15:48;20.40;66.90
48998;DHT22;34807;51.456;7.244;2023-07-08T04:18:15;20.40;67.00
48998;DHT22;34807;51.456;7.244;2023-07-08T04:20:40;20.40;67.00
48998;DHT22;34807;51.456;7.244;2023-07-08T04:23:06;20.40;67.20
48998;DHT22;34807;51.456;7.244;2023-07-08T04:25:31;20.30;67.10
48998;DHT22;34807;51.456;7.244;2023-07-08T04:27:57;20.30;67.00
48998;DHT22;34807;51.456;7.244;2023-07-08T04:30:23;20.30;67.20
48998;DHT22;34807;51.456;7.244;2023-07-08T04:32:50;20.30;67.00
48998;DHT22;34807;51.456;7.244;2023-07-08T04:35:16;20.30;67.10
48998;DHT22;34807;51.456;7.244;2023-07-08T04:37:41;20.30;67.20
48998;DHT22;34807;51.456;7.244;2023-07-08T04:40:10;20.20;67.30
48998;DHT22;34807;51.456;7.244;2023-07-08T04:42:39;20.30;67.20
48998;DHT22;34807;51.456;7.244;2023-07-08T04:45:05;20.20;67.30
48998;DHT22;34807;51.456;7.244;2023-07-08T04:47:31;20.20;67.10
48998;DHT22;34807;51.456;7.244;2023-07-08T04:49:59;20.20;67.50
48998;DHT22;34807;51.456;7.244;2023-07-08T04:52:24;20.20;67.30
48998;DHT22;34807;51.456;7.244;2023-07-08T04:54:50;20.20;67.40
48998;DHT22;34807;51.456;7.244;2023-07-08T04:57:15;20.20;67.30
48998;DHT22;34807;51.456;7.244;2023-07-08T04:59:42;20.20;67.50
48998;DHT22;34807;51.456;7.244;2023-07-08T05:02:07;20.20;67.50
48998;DHT22;34807;51.456;7.244;2023-07-08T05:04:33;20.20;67.60
48998;DHT22;34807;51.456;7.244;2023-07-08T05:06:58;20.20;67.60
48998;DHT22;34807;51.456;7.244;2023-07-08T05:09:24;20.20;67.70
48998;DHT22;34807;51.456;7.244;2023-07-08T05:11:51;20.20;67.60
48998;DHT22;34807;51.456;7.244;2023-07-08T05:14:16;20.10;67.80
48998;DHT22;34807;51.456;7.244;2023-07-08T05:16:42;20.10;67.70
48998;DHT22;34807;51.456;7.244;2023-07-08T05:19:08;20.20;67.70
48998;DHT22;34807;51.456;7.244;2023-07-08T05:21:33;20.20;67.60
48998;DHT22;34807;51.456;7.244;2023-07-08T05:24:03;20.10;67.80
48998;DHT22;34807;51.456;7.244;2023-07-08T05:26:28;20.10;67.70
48998;DHT22;34807;51.456;7.244;2023-07-08T05:28:56;20.10;67.80
48998;DHT22;34807;51.456;7.244;2023-07-08T05:31:21;20.10;68.00
48998;DHT22;34807;51.456;7.244;2023-07-08T05:33:47;20.10;67.80
48998;DHT22;34807;51.456;7.244;2023-07-08T05:36:12;20.10;68.00
48998;DHT22;34807;51.456;7.244;2023-07-08T05:38:38;20.10;68.00
48998;DHT22;34807;51.456;7.244;2023-07-08T05:41:03;20.10;67.90
48998;DHT22;34807;51.456;7.244;2023-07-08T05:43:29;20.10;68.10
48998;DHT22;34807;51.456;7.244;2023-07-08T05:46:01;20.10;68.10
48998;DHT22;34807;51.456;7.244;2023-07-08T05:48:27;20.10;68.00
48998;DHT22;34807;51.456;7.244;2023-07-08T05:50:52;20.10;67.90
48998;DHT22;34807;51.456;7.244;2023-07-08T05:53:18;20.10;68.00
48998;DHT22;34807;51.456;7.244;2023-07-08T05:55:44;20.20;68.10
48998;DHT22;34807;51.456;7.244;2023-07-08T05:58:10;20.10;68.10
48998;DHT22;34807;51.456;7.244;2023-07-08T06:00:36;20.10;68.10
48998;DHT22;34807;51.456;7.244;2023-07-08T06:03:02;20.10;68.10
48998;DHT22;34807;51.456;7.244;2023-07-08T06:05:27;20.10;68.10
48998;DHT22;34807;51.456;7.244;2023-07-08T06:07:53;20.20;68.10
48998;DHT22;34807;51.456;7.244;2023-07-08T06:10:18;20.10;68.00
48998;DHT22;34807;51.456;7.244;2023-07-08T06:12:44;20.10;68.10
48998;DHT22;34807;51.456;7.244;2023-07-08T06:15:09;20.20;68.10
48998;DHT22;34807;51.456;7.244;2023-07-08T06:17:35;20.10;68.30
48998;DHT22;34807;51.456;7.244;2023-07-08T06:20:00;20.20;68.20
48998;DHT22;34807;51.456;7.244;2023-07-08T06:22:27;20.20;68.30
48998;DHT22;34807;51.456;7.244;2023-07-08T06:24:52;20.20;68.30
48998;DHT22;34807;51.456;7.244;2023-07-08T06:27:18;20.20;68.20
48998;DHT22;34807;51.456;7.244;2023-07-08T06:29:44;20.20;68.30
48998;DHT22;34807;51.456;7.244;2023-07-08T06:32:10;20.20;68.20
48998;DHT22;34807;51.456;7.244;2023-07-08T06:34:36;20.20;68.30
48998;DHT22;34807;51.456;7.244;2023-07-08T06:37:01;20.20;68.20
48998;DHT22;34807;51.456;7.244;2023-07-08T06:39:27;20.20;68.10
48998;DHT22;34807;51.456;7.244;2023-07-08T06:41:52;20.20;68.20
48998;DHT22;34807;51.456;7.244;2023-07-08T06:44:18;20.20;68.20
48998;DHT22;34807;51.456;7.244;2023-07-08T06:46:43;20.30;68.30
48998;DHT22;34807;51.456;7.244;2023-07-08T06:49:09;20.30;68.20
48998;DHT22;34807;51.456;7.244;2023-07-08T06:51:35;20.30;68.20
48998;DHT22;34807;51.456;7.244;2023-07-08T06:54:00;20.30;68.10
48998;DHT22;34807;51.456;7.244;2023-07-08T06:56:30;20.30;68.10
48998;DHT22;34807;51.456;7.244;2023-07-08T06:58:56;20.30;68.10
48998;DHT22;34807;51.456;7.244;2023-07-08T07:01:21;20.30;68.10
48998;DHT22;34807;51.456;7.244;2023-07-08T07:03:47;20.30;68.00
48998;DHT22;34807;51.456;7.244;2023-07-08T07:06:12;20.40;68.10
48998;DHT22;34807;51.456;7.244;2023-07-08T07:08:38;20.40;68.00
48998;DHT22;34807;51.456;7.244;2023-07-08T07:11:03;20.40;67.80
48998;DHT22;34807;51.456;7.244;2023-07-08T07:13:29;20.40;68.20
48998;DHT22;34807;51.456;7.244;2023-07-08T07:15:54;20.40;67.70
48998;DHT22;34807;51.456;7.244;2023-07-08T07:18:20;20.40;67.70
48998;DHT22;34807;51.456;7.244;2023-07-08T07:20:49;20.50;67.80
48998;DHT22;34807;51.456;7.244;2023-07-08T07:23:15;20.50;67.70
48998;DHT22;34807;51.456;7.244;2023-07-08T07:25:41;20.50;67.60
48998;DHT22;34807;51.456;7.244;2023-07-08T07:28:06;20.50;67.70
48998;DHT22;34807;51.456;7.244;2023-07-08T07:30:32;20.50;67.50
48998;DHT22;34807;51.456;7.244;2023-07-08T07:32:59;20.60;67.80
48998;DHT22;34807;51.456;7.244;2023-07-08T07:35:25;20.60;67.50
48998;DHT22;34807;51.456;7.244;2023-07-08T07:37:50;20.60;67.40
48998;DHT22;34807;51.456;7.244;2023-07-08T07:40:16;20.60;67.20
48998;DHT22;34807;51.456;7.244;2023-07-08T07:42:42;20.60;67.30
48998;DHT22;34807;51.456;7.244;2023-07-08T07:45:08;20.60;67.20
48998;DHT22;34807;51.456;7.244;2023-07-08T07:47:35;20.70;67.10
48998;DHT22;34807;51.456;7.244;2023-07-08T07:50:00;20.70;67.10
48998;DHT22;34807;51.456;7.244;2023-07-08T07:52:27;20.70;67.30
48998;DHT22;34807;51.456;7.244;2023-07-08T07:54:53;20.80;67.20
48998;DHT22;34807;51.456;7.244;2023-07-08T07:57:19;20.80;67.00
48998;DHT22;34807;51.456;7.244;2023-07-08T07:59:45;20.80;67.10
48998;DHT22;34807;51.456;7.244;2023-07-08T08:02:11;20.80;67.00
48998;DHT22;34807;51.456;7.244;2023-07-08T08:04:37;20.90;67.00
48998;DHT22;34807;51.456;7.244;2023-07-08T08:07:02;20.90;66.80
48998;DHT22;34807;51.456;7.244;2023-07-08T08:09:28;20.90;66.90
48998;DHT22;34807;51.456;7.244;2023-07-08T08:11:53;21.00;66.80
48998;DHT22;34807;51.456;7.244;2023-07-08T08:14:20;21.00;66.80
48998;DHT22;34807;51.456;7.244;2023-07-08T08:16:46;21.00;67.00
48998;DHT22;34807;51.456;7.244;2023-07-08T08:19:11;21.10;67.10
48998;DHT22;34807;51.456;7.244;2023-07-08T08:21:36;21.10;66.90
48998;DHT22;34807;51.456;7.244;2023-07-08T08:24:02;21.20;67.10
48998;DHT22;34807;51.456;7.244;2023-07-08T08:26:28;21.20;67.10
48998;DHT22;34807;51.456;7.244;2023-07-08T08:28:54;21.30;66.80
48998;DHT22;34807;51.456;7.244;2023-07-08T08:31:19;21.30;67.20
48998;DHT22;34807;51.456;7.244;2023-07-08T08:33:45;21.40;67.00
48998;DHT22;34807;51.456;7.244;2023-07-08T08:36:10;21.40;66.80
48998;DHT22;34807;51.456;7.244;2023-07-08T08:38:36;21.50;66.70
48998;DHT22;34807;51.456;7.244;2023-07-08T08:41:09;21.60;66.80
48998;DHT22;34807;51.456;7.244;2023-07-08T08:43:37;21.60;66.80
48998;DHT22;34807;51.456;7.244;2023-07-08T08:48:30;21.70;66.70
48998;DHT22;34807;51.456;7.244;2023-07-08T08:51:07;21.80;66.60
48998;DHT22;34807;51.456;7.244;2023-07-08T08:53:35;21.80;67.60
48998;DHT22;34807;51.456;7.244;2023-07-08T08:56:03;21.90;66.70
48998;DHT22;34807;51.456;7.244;2023-07-08T08:58:33;22.00;66.40
48998;DHT22;34807;51.456;7.244;2023-07-08T09:01:04;22.10;66.50
48998;DHT22;34807;51.456;7.244;2023-07-08T09:03:38;22.10;65.90
48998;DHT22;34807;51.456;7.244;2023-07-08T09:06:13;22.30;65.90
48998;DHT22;34807;51.456;7.244;2023-07-08T09:08:39;22.40;65.80
48998;DHT22;34807;51.456;7.244;2023-07-08T09:13:40;22.50;65.60
48998;DHT22;34807;51.456;7.244;2023-07-08T09:16:06;22.60;65.50
48998;DHT22;34807;51.456;7.244;2023-07-08T09:18:35;22.70;65.60
48998;DHT22;34807;51.456;7.244;2023-07-08T09:21:04;22.70;65.30
48998;DHT22;34807;51.456;7.244;2023-07-08T09:23:32;22.80;65.10
48998;DHT22;34807;51.456;7.244;2023-07-08T09:26:07;22.90;64.90
48998;DHT22;34807;51.456;7.244;2023-07-08T09:28:36;22.90;65.00
48998;DHT22;34807;51.456;7.244;2023-07-08T09:31:02;22.90;65.20
48998;DHT22;34807;51.456;7.244;2023-07-08T09:33:29;23.00;65.00
48998;DHT22;34807;51.456;7.244;2023-07-08T09:35:54;23.10;65.20
48998;DHT22;34807;51.456;7.244;2023-07-08T09:38:21;23.10;64.90
48998;DHT22;34807;51.456;7.244;2023-07-08T09:40:48;23.20;64.90
48998;DHT22;34807;51.456;7.244;2023-07-08T09:43:26;23.30;64.70
48998;DHT22;34807;51.456;7.244;2023-07-08T09:45:51;23.50;64.70
48998;DHT22;34807;51.456;7.244;2023-07-08T09:48:26;23.50;64.60
48998;DHT22;34807;51.456;7.244;2023-07-08T09:50:52;23.60;64.40
48998;DHT22;34807;51.456;7.244;2023-07-08T09:53:18;23.70;64.40
48998;DHT22;34807;51.456;7.244;2023-07-08T09:55:44;23.70;64.20
48998;DHT22;34807;51.456;7.244;2023-07-08T09:58:11;23.80;64.00
48998;DHT22;34807;51.456;7.244;2023-07-08T10:00:39;23.80;64.10
48998;DHT22;34807;51.456;7.244;2023-07-08T10:03:08;23.90;64.00
48998;DHT22;34807;51.456;7.244;2023-07-08T10:05:35;24.00;63.90
48998;DHT22;34807;51.456;7.244;2023-07-08T10:08:02;24.10;63.90
48998;DHT22;34807;51.456;7.244;2023-07-08T10:10:31;24.10;63.70
48998;DHT22;34807;51.456;7.244;2023-07-08T10:12:59;24.20;63.60
48998;DHT22;34807;51.456;7.244;2023-07-08T10:15:42;24.20;63.50
48998;DHT22;34807;51.456;7.244;2023-07-08T10:18:13;24.30;63.50
48998;DHT22;34807;51.456;7.244;2023-07-08T10:28:18;24.70;64.00
48998;DHT22;34807;51.456;7.244;2023-07-08T10:30:53;24.70;64.00
48998;DHT22;34807;51.456;7.244;2023-07-08T10:37:10;24.90;63.90
48998;DHT22;34807;51.456;7.244;2023-07-08T10:39:10;25.00;64.00
48998;DHT22;34807;51.456;7.244;2023-07-08T10:44:32;25.30;63.80
48998;DHT22;34807;51.456;7.244;2023-07-08T10:47:04;25.30;64.00
48998;DHT22;34807;51.456;7.244;2023-07-08T10:49:34;25.50;63.40
48998;DHT22;34807;51.456;7.244;2023-07-08T11:00:02;25.90;63.80
48998;DHT22;34807;51.456;7.244;2023-07-08T11:10:02;26.50;64.20
48998;DHT22;34807;51.456;7.244;2023-07-08T11:14:57;26.70;64.40
48998;DHT22;34807;51.456;7.244;2023-07-08T11:17:29;26.80;64.40
48998;DHT22;34807;51.456;7.244;2023-07-08T11:20:06;26.90;64.70
48998;DHT22;34807;51.456;7.244;2023-07-08T11:22:36;27.10;64.60
48998;DHT22;34807;51.456;7.244;2023-07-08T11:25:04;27.20;64.50
48998;DHT22;34807;51.456;7.244;2023-07-08T11:27:34;27.30;64.40
48998;DHT22;34807;51.456;7.244;2023-07-08T11:30:12;27.40;64.70
48998;DHT22;34807;51.456;7.244;2023-07-08T11:32:38;27.50;64.30
48998;DHT22;34807;51.456;7.244;2023-07-08T11:35:05;27.60;63.80
48998;DHT22;34807;51.456;7.244;2023-07-08T11:37:32;27.70;63.80
48998;DHT22;34807;51.456;7.244;2023-07-08T11:39:59;27.80;63.40
48998;DHT22;34807;51.456;7.244;2023-07-08T11:44:58;28.00;64.10
48998;DHT22;34807;51.456;7.244;2023-07-08T11:47:26;28.10;63.80
48998;DHT22;34807;51.456;7.244;2023-07-08T11:49:58;28.20;63.80
48998;DHT22;34807;51.456;7.244;2023-07-08T11:52:23;28.30;63.70
48998;DHT22;34807;51.456;7.244;2023-07-08T11:54:55;28.40;63.90
48998;DHT22;34807;51.456;7.244;2023-07-08T11:57:28;28.40;64.20
48998;DHT22;34807;51.456;7.244;2023-07-08T12:00:12;28.50;63.90
48998;DHT22;34807;51.456;7.244;2023-07-08T12:02:53;28.60;63.80
48998;DHT22;34807;51.456;7.244;2023-07-08T12:05:28;28.70;63.80
48998;DHT22;34807;51.456;7.244;2023-07-08T12:07:57;28.80;63.80
48998;DHT22;34807;51.456;7.244;2023-07-08T12:12:49;29.00;63.60
48998;DHT22;34807;51.456;7.244;2023-07-08T12:17:43;29.20;63.80
48998;DHT22;34807;51.456;7.244;2023-07-08T12:20:16;29.20;63.60
48998;DHT22;34807;51.456;7.244;2023-07-08T12:22:42;29.30;63.30
48998;DHT22;34807;51.456;7.244;2023-07-08T12:25:13;29.40;63.40
48998;DHT22;34807;51.456;7.244;2023-07-08T12:27:38;29.50;63.20
48998;DHT22;34807;51.456;7.244;2023-07-08T12:30:04;29.60;63.70
48998;DHT22;34807;51.456;7.244;2023-07-08T12:32:30;29.70;63.60
48998;DHT22;34807;51.456;7.244;2023-07-08T12:34:55;29.70;63.50
48998;DHT22;34807;51.456;7.244;2023-07-08T12:37:21;29.80;63.40
48998;DHT22;34807;51.456;7.244;2023-07-08T12:39:54;29.80;63.20
48998;DHT22;34807;51.456;7.244;2023-07-08T12:42:20;29.90;63.40
48998;DHT22;34807;51.456;7.244;2023-07-08T12:44:46;30.00;63.10
48998;DHT22;34807;51.456;7.244;2023-07-08T12:47:11;30.00;63.30
48998;DHT22;34807;51.456;7.244;2023-07-08T12:49:37;30.10;62.80
48998;DHT22;34807;51.456;7.244;2023-07-08T12:52:02;30.10;62.70
48998;DHT22;34807;51.456;7.244;2023-07-08T12:54:28;30.30;62.30
48998;DHT22;34807;51.456;7.244;2023-07-08T12:56:53;30.30;62.70
48998;DHT22;34807;51.456;7.244;2023-07-08T12:59:20;30.40;62.30
48998;DHT22;34807;51.456;7.244;2023-07-08T13:01:47;30.40;62.60
48998;DHT22;34807;51.456;7.244;2023-07-08T13:04:13;30.50;62.50
48998;DHT22;34807;51.456;7.244;2023-07-08T13:06:39;30.60;62.40
48998;DHT22;34807;51.456;7.244;2023-07-08T13:11:50;30.60;62.00
48998;DHT22;34807;51.456;7.244;2023-07-08T13:14:17;30.70;62.00
48998;DHT22;34807;51.456;7.244;2023-07-08T13:16:44;30.80;61.90
48998;DHT22;34807;51.456;7.244;2023-07-08T13:19:11;30.90;61.40
48998;DHT22;34807;51.456;7.244;2023-07-08T13:21:37;30.90;61.40
48998;DHT22;34807;51.456;7.244;2023-07-08T13:24:06;31.00;61.70
48998;DHT22;34807;51.456;7.244;2023-07-08T13:26:32;31.10;61.70
48998;DHT22;34807;51.456;7.244;2023-07-08T13:29:01;31.10;62.00
48998;DHT22;34807;51.456;7.244;2023-07-08T13:31:33;31.20;61.60
48998;DHT22;34807;51.456;7.244;2023-07-08T13:34:02;31.20;61.40
48998;DHT22;34807;51.456;7.244;2023-07-08T13:36:34;31.30;61.30
48998;DHT22;34807;51.456;7.244;2023-07-08T13:39:08;31.40;61.30
48998;DHT22;34807;51.456;7.244;2023-07-08T13:41:34;31.40;61.30
48998;DHT22;34807;51.456;7.244;2023-07-08T13:44:06;31.50;61.30
48998;DHT22;34807;51.456;7.244;2023-07-08T13:46:36;31.50;61.70
48998;DHT22;34807;51.456;7.244;2023-07-08T13:51:40;31.60;61.50
48998;DHT22;34807;51.456;7.244;2023-07-08T13:54:13;31.70;61.30
48998;DHT22;34807;51.456;7.244;2023-07-08T13:56:38;31.70;60.50
48998;DHT22;34807;51.456;7.244;2023-07-08T13:59:07;31.80;60.60
48998;DHT22;34807;51.456;7.244;2023-07-08T14:01:34;31.80;60.50
48998;DHT22;34807;51.456;7.244;2023-07-08T14:04:00;31.90;60.30
48998;DHT22;34807;51.456;7.244;2023-07-08T14:06:29;31.90;60.50
48998;DHT22;34807;51.456;7.244;2023-07-08T14:09:01;31.90;60.10
48998;DHT22;34807;51.456;7.244;2023-07-08T14:11:29;32.00;59.90
48998;DHT22;34807;51.456;7.244;2023-07-08T14:13:54;32.10;60.10
48998;DHT22;34807;51.456;7.244;2023-07-08T14:18:45;32.20;60.80
48998;DHT22;34807;51.456;7.244;2023-07-08T14:21:11;32.20;60.20
48998;DHT22;34807;51.456;7.244;2023-07-08T14:23:36;32.30;60.30
48998;DHT22;34807;51.456;7.244;2023-07-08T14:26:04;32.30;60.40
48998;DHT22;34807;51.456;7.244;2023-07-08T14:28:32;32.30;59.30
48998;DHT22;34807;51.456;7.244;2023-07-08T14:30:58;32.40;59.30
48998;DHT22;34807;51.456;7.244;2023-07-08T14:33:23;32.50;59.20
48998;DHT22;34807;51.456;7.244;2023-07-08T14:35:49;32.50;58.50
48998;DHT22;34807;51.456;7.244;2023-07-08T14:38:14;32.50;58.10
48998;DHT22;34807;51.456;7.244;2023-07-08T14:40:40;32.50;59.00
48998;DHT22;34807;51.456;7.244;2023-07-08T14:43:27;32.60;59.10
48998;DHT22;34807;51.456;7.244;2023-07-08T14:45:54;32.70;58.30
48998;DHT22;34807;51.456;7.244;2023-07-08T14:48:20;32.90;58.00
48998;DHT22;34807;51.456;7.244;2023-07-08T14:50:46;33.10;57.90
48998;DHT22;34807;51.456;7.244;2023-07-08T14:53:15;33.30;57.60
48998;DHT22;34807;51.456;7.244;2023-07-08T14:55:41;33.40;58.20
48998;DHT22;34807;51.456;7.244;2023-07-08T14:58:08;33.60;57.30
48998;DHT22;34807;51.456;7.244;2023-07-08T15:00:35;33.80;57.00
48998;DHT22;34807;51.456;7.244;2023-07-08T15:03:00;33.90;56.30
48998;DHT22;34807;51.456;7.244;2023-07-08T15:05:27;34.10;57.00
48998;DHT22;34807;51.456;7.244;2023-07-08T15:07:54;34.20;56.60
48998;DHT22;34807;51.456;7.244;2023-07-08T15:10:20;34.30;56.40
48998;DHT22;34807;51.456;7.244;2023-07-08T15:12:46;34.60;56.30
48998;DHT22;34807;51.456;7.244;2023-07-08T15:15:16;34.70;56.20
48998;DHT22;34807;51.456;7.244;2023-07-08T15:17:42;35.00;55.70
48998;DHT22;34807;51.456;7.244;2023-07-08T15:20:11;34.90;55.70
48998;DHT22;34807;51.456;7.244;2023-07-08T15:22:41;34.90;56.10
48998;DHT22;34807;51.456;7.244;2023-07-08T15:25:08;34.90;56.00
48998;DHT22;34807;51.456;7.244;2023-07-08T15:27:34;34.70;56.10
48998;DHT22;34807;51.456;7.244;2023-07-08T15:29:59;34.60;55.90
48998;DHT22;34807;51.456;7.244;2023-07-08T15:32:25;34.60;56.30
48998;DHT22;34807;51.456;7.244;2023-07-08T15:34:50;34.70;56.30
48998;DHT22;34807;51.456;7.244;2023-07-08T15:37:16;34.70;56.10
48998;DHT22;34807;51.456;7.244;2023-07-08T15:39:41;34.90;55.80
48998;DHT22;34807;51.456;7.244;2023-07-08T15:42:11;35.00;55.40
48998;DHT22;34807;51.456;7.244;2023-07-08T15:44:37;35.20;56.10
48998;DHT22;34807;51.456;7.244;2023-07-08T15:47:03;35.40;55.10
48998;DHT22;34807;51.456;7.244;2023-07-08T15:49:29;35.50;54.90
48998;DHT22;34807;51.456;7.244;2023-07-08T15:51:56;35.60;55.00
48998;DHT22;34807;51.456;7.244;2023-07-08T15:54:21;35.60;54.90
48998;DHT22;34807;51.456;7.244;2023-07-08T15:56:48;35.60;55.00
48998;DHT22;34807;51.456;7.244;2023-07-08T15:59:15;35.80;54.80
48998;DHT22;34807;51.456;7.244;2023-07-08T16:01:41;35.80;54.70
48998;DHT22;34807;51.456;7.244;2023-07-08T16:04:18;35.70;54.70
48998;DHT22;34807;51.456;7.244;2023-07-08T16:06:44;35.70;54.70
48998;DHT22;34807;51.456;7.244;2023-07-08T16:09:09;35.80;54.90
48998;DHT22;34807;51.456;7.244;2023-07-08T16:11:35;35.90;54.70
48998;DHT22;34807;51.456;7.244;2023-07-08T16:14:01;35.90;54.60
48998;DHT22;34807;51.456;7.244;2023-07-08T16:16:27;36.00;54.50
48998;DHT22;34807;51.456;7.244;2023-07-08T16:18:53;35.90;54.70
48998;DHT22;34807;51.456;7.244;2023-07-08T16:21:18;35.70;54.70
48998;DHT22;34807;51.456;7.244;2023-07-08T16:23:44;35.60;54.90
48998;DHT22;34807;51.456;7.244;2023-07-08T16:26:11;35.40;55.20
48998;DHT22;34807;51.456;7.244;2023-07-08T16:28:40;35.30;55.40